This is the latest recevied weather packets stored in our database for station/object SQ9MHX-13. If no packets are shown the sender has not sent any weather packets the latest 10 day(s).
| Time | Temp. | Humidity | Pressure | Rain* | Wind** | Luminosity | Snow |
|---|---|---|---|---|---|---|---|
| 1777428964 | 1.11° C | 67% | 994.6 hPa | - | 0 m/s | - | - |
| 1777428666 | 1.11° C | 67% | 994.6 hPa | - | 0 m/s | - | - |
| 1777428368 | 0° C | 67% | 995.1 hPa | - | 0 m/s | - | - |
| 1777428070 | 0° C | 68% | 995.1 hPa | - | 0 m/s | - | - |
| 1777427772 | 0° C | 68% | 995.2 hPa | - | 0 m/s | - | - |
| 1777427474 | 0° C | 69% | 995.6 hPa | - | 0 m/s | - | - |
| 1777427176 | 0° C | 70% | 995.9 hPa | - | 0 m/s | - | - |
| 1777426879 | 0° C | 70% | 995.9 hPa | - | 0 m/s | - | - |
| 1777426581 | 0° C | 70% | 996 hPa | - | 0 m/s | - | - |
| 1777426283 | 0° C | 71% | 995.9 hPa | - | 0 m/s | - | - |
| 1777425985 | 0° C | 72% | 996.2 hPa | - | 0 m/s | - | - |
| 1777425687 | 0° C | 72% | 995.9 hPa | - | 0 m/s | - | - |
| 1777425389 | 0° C | 71% | 995.6 hPa | - | 0 m/s | - | - |
| 1777425092 | 0° C | 68% | 994.9 hPa | - | 0 m/s | - | - |
| 1777424794 | 0° C | 68% | 994.9 hPa | - | 0 m/s | - | - |
| 1777424496 | 0° C | 68% | 994.9 hPa | - | 0 m/s | - | - |
| 1777424198 | 0° C | 68% | 994.9 hPa | - | 0 m/s | - | - |
| 1777423900 | 0° C | 69% | 995.6 hPa | - | 0 m/s | - | - |
| 1777423602 | 0° C | 73% | 996.5 hPa | - | 0 m/s | - | - |
| 1777423304 | -1.11° C | 78% | 997.2 hPa | - | 0 m/s | - | - |
| 1777423007 | -1.11° C | 76% | 997 hPa | - | 0 m/s | - | - |
| 1777422709 | 0° C | 74% | 996.7 hPa | - | 0 m/s | - | - |
| 1777422411 | 0° C | 74% | 996.1 hPa | - | 0 m/s | - | - |
| 1777422113 | 0° C | 73% | 995.9 hPa | - | 0 m/s | - | - |
| 1777421815 | 0° C | 70% | 996 hPa | - | 0 m/s | - | - |
* Rain since midnight (hover to see other rain measurements)
** Current wind speed in m/s (hover to see current wind gust speed)